CheckWX is a tool to help pilots better visualize weather data.  It is not intended as a substitute for an official pre-flight weather briefing.

14:02:26 UTC

KNJM METAR
Bogue Field McAlf Airport
Swansboro, North Carolina, USA
Current

51 mins ago

KNJM 261311Z AUTO 19014KT 9SM BKN027 22/19 A2977 RMK AO2 T02220194
Observed
Apr-26 @ 13:11 UTC
Wind
  • 190° at 14 KTS
Visibility
9 SM
Flight Rules
MVFR
Cloud Levels
  • Broken at 2,700' AGL
Temperature
22°C / 72°F
Dewpoint
19°C / 66°F
Humidity
83%
Altimeter
29.77" Hg
Pressure
1008.12 hPa
Previous

1 hour ago

KNJM 261257Z AUTO 20012G23KT 10SM SCT029 22/19 A2977 RMK AO2 SLP086 T02220194
Observed
Apr-26 @ 12:57 UTC
Wind
  • 200° at 12 KTS
  • Gusting to 23 KTS
Visibility
10 SM
Flight Rules
VFR
Cloud Levels
  • Scattered at 2,900' AGL
Temperature
22°C / 72°F
Dewpoint
19°C / 66°F
Humidity
83%
Altimeter
29.77" Hg
Pressure
1008.12 hPa
Previous

2 hours ago

KNJM 261157Z AUTO 20012G21KT 10SM SCT039 BKN048 22/19 A2980 RMK AO2 SLP094 T02170189 10217 20206 56008
Observed
Apr-26 @ 11:57 UTC
Wind
  • 200° at 12 KTS
  • Gusting to 21 KTS
Visibility
10 SM
Flight Rules
VFR
Cloud Levels
  • Scattered at 3,900' AGL
  • Broken at 4,800' AGL
Temperature
22°C / 72°F
Dewpoint
19°C / 66°F
Humidity
83%
Altimeter
29.8" Hg
Pressure
1009.12 hPa